createdAt,value
2023-02-17T00:01:36.969Z,7.00
2023-02-17T00:04:03.789Z,7.00
2023-02-17T00:06:32.343Z,7.00
2023-02-17T00:09:00.387Z,7.00
2023-02-17T00:11:28.383Z,6.90
2023-02-17T00:13:56.397Z,6.90
2023-02-17T00:16:25.055Z,6.90
2023-02-17T00:18:57.468Z,6.80
2023-02-17T00:21:26.203Z,6.80
2023-02-17T00:23:53.399Z,6.80
2023-02-17T00:26:21.501Z,6.80
2023-02-17T00:28:49.160Z,6.80
2023-02-17T00:31:19.516Z,6.80
2023-02-17T00:33:46.500Z,6.80
2023-02-17T00:36:19.570Z,6.80
2023-02-17T00:38:47.968Z,6.80
2023-02-17T00:41:15.391Z,6.90
2023-02-17T00:43:42.048Z,7.00
2023-02-17T00:46:09.092Z,6.90
2023-02-17T00:48:36.050Z,7.00
2023-02-17T00:51:02.869Z,7.00
2023-02-17T00:53:31.475Z,7.10
2023-02-17T00:55:58.250Z,7.10
2023-02-17T00:58:25.424Z,7.20
2023-02-17T01:00:52.443Z,7.20
2023-02-17T01:03:19.651Z,7.20
2023-02-17T01:05:48.380Z,7.30
2023-02-17T01:08:16.513Z,7.20
2023-02-17T01:10:45.844Z,7.30
2023-02-17T01:13:13.901Z,7.30
2023-02-17T01:15:46.756Z,7.40
2023-02-17T01:18:14.991Z,7.30
2023-02-17T01:20:41.902Z,7.30
2023-02-17T01:23:10.800Z,7.30
2023-02-17T01:25:39.194Z,7.30
2023-02-17T01:28:07.377Z,7.30
2023-02-17T01:30:34.680Z,7.30
2023-02-17T01:33:01.444Z,7.30
2023-02-17T01:35:28.170Z,7.30
2023-02-17T01:37:54.842Z,7.20
2023-02-17T01:40:21.676Z,7.20
2023-02-17T01:42:48.346Z,7.20
2023-02-17T01:45:36.768Z,7.20
2023-02-17T01:48:11.915Z,7.30
2023-02-17T01:50:44.150Z,7.30
2023-02-17T01:53:14.316Z,7.30
2023-02-17T01:55:42.304Z,7.30
2023-02-17T01:58:14.157Z,7.20
2023-02-17T02:00:41.360Z,7.20
2023-02-17T02:03:10.816Z,7.20
2023-02-17T02:05:39.664Z,7.10
2023-02-17T02:08:07.014Z,7.10
2023-02-17T02:10:34.076Z,7.10
2023-02-17T02:13:01.111Z,7.10
2023-02-17T02:15:54.014Z,7.00
2023-02-17T02:18:37.284Z,7.00
2023-02-17T02:21:47.996Z,6.90
2023-02-17T02:24:33.315Z,6.80
2023-02-17T02:27:08.997Z,6.80
2023-02-17T02:30:22.672Z,6.70
2023-02-17T02:33:07.957Z,6.60
2023-02-17T02:35:34.595Z,6.60
2023-02-17T02:38:30.112Z,6.60
2023-02-17T02:41:22.772Z,6.60
2023-02-17T02:43:49.687Z,6.60
2023-02-17T02:46:16.812Z,6.60
2023-02-17T02:48:44.064Z,6.70
2023-02-17T02:51:13.799Z,6.70
2023-02-17T02:53:55.222Z,6.60
2023-02-17T02:56:36.874Z,6.60
2023-02-17T02:59:27.279Z,6.60
2023-02-17T03:02:20.619Z,6.60
2023-02-17T03:05:05.477Z,6.60
2023-02-17T03:07:37.704Z,6.60
2023-02-17T03:10:05.263Z,6.60
2023-02-17T03:12:32.206Z,6.60
2023-02-17T03:15:13.734Z,6.60
2023-02-17T03:17:40.512Z,6.60
2023-02-17T03:20:08.435Z,6.60
2023-02-17T03:22:41.760Z,6.70
2023-02-17T03:25:09.142Z,6.70
2023-02-17T03:27:35.891Z,6.80
2023-02-17T03:30:02.943Z,6.80
2023-02-17T03:32:29.689Z,6.80
2023-02-17T03:34:56.475Z,6.80
2023-02-17T03:37:23.279Z,6.80
2023-02-17T03:39:49.956Z,6.80
2023-02-17T03:42:17.104Z,6.80
2023-02-17T03:44:43.853Z,6.80
2023-02-17T03:47:10.481Z,6.80
2023-02-17T03:49:37.152Z,6.70
2023-02-17T03:52:04.185Z,6.70
2023-02-17T03:54:30.945Z,6.60
2023-02-17T03:56:59.033Z,6.60
2023-02-17T03:59:25.918Z,6.50
2023-02-17T04:01:52.593Z,6.40
2023-02-17T04:04:19.433Z,6.40
2023-02-17T04:06:46.162Z,6.40
2023-02-17T04:09:12.923Z,6.30
2023-02-17T04:11:39.759Z,6.40
2023-02-17T04:14:06.529Z,6.40
2023-02-17T04:16:33.312Z,6.40
2023-02-17T04:19:00.007Z,6.50
2023-02-17T04:21:26.721Z,6.60
2023-02-17T04:23:55.131Z,6.60
2023-02-17T04:26:21.891Z,6.70
2023-02-17T04:28:48.702Z,6.70
2023-02-17T04:31:15.546Z,6.70
2023-02-17T04:33:42.203Z,6.70
2023-02-17T04:36:08.993Z,6.60
2023-02-17T04:38:35.777Z,6.60
2023-02-17T04:41:02.511Z,6.60
2023-02-17T04:43:29.749Z,6.60
2023-02-17T04:45:56.880Z,6.60
2023-02-17T04:48:24.010Z,6.60
2023-02-17T04:50:51.064Z,6.60
2023-02-17T04:53:19.853Z,6.70
2023-02-17T04:55:51.935Z,6.70
2023-02-17T04:58:19.594Z,6.70
2023-02-17T05:00:50.657Z,6.70
2023-02-17T05:03:18.822Z,6.70
2023-02-17T05:05:45.433Z,6.80
2023-02-17T05:08:12.124Z,6.80
2023-02-17T05:10:39.054Z,6.90
2023-02-17T05:13:05.707Z,6.90
2023-02-17T05:15:34.774Z,6.80
2023-02-17T05:18:02.069Z,6.80
2023-02-17T05:20:29.223Z,6.90
2023-02-17T05:22:55.937Z,6.90
2023-02-17T05:25:22.723Z,6.80
2023-02-17T05:27:49.340Z,6.80
2023-02-17T05:30:16.201Z,6.80
2023-02-17T05:32:42.954Z,6.80
2023-02-17T05:35:09.713Z,6.80
2023-02-17T05:37:36.461Z,6.90
2023-02-17T05:40:03.552Z,6.90
2023-02-17T05:42:30.285Z,6.90
2023-02-17T05:44:57.050Z,7.00
2023-02-17T05:47:25.019Z,7.00
2023-02-17T05:49:52.848Z,6.90
2023-02-17T05:52:19.582Z,7.00
2023-02-17T05:54:46.280Z,7.00
2023-02-17T05:57:12.940Z,7.00
2023-02-17T05:59:39.781Z,7.10
2023-02-17T06:02:06.489Z,7.10
2023-02-17T06:04:33.718Z,7.20
2023-02-17T06:07:00.449Z,7.20
2023-02-17T06:09:27.212Z,7.20
2023-02-17T06:11:54.020Z,7.20
2023-02-17T06:14:20.728Z,7.20
2023-02-17T06:16:47.458Z,7.20
2023-02-17T06:19:14.186Z,7.30
2023-02-17T06:21:41.028Z,7.40
2023-02-17T06:24:07.842Z,7.50
2023-02-17T06:26:34.550Z,7.30
2023-02-17T06:29:01.316Z,7.40
2023-02-17T06:31:28.404Z,7.30
2023-02-17T06:33:55.227Z,7.30
2023-02-17T06:36:21.958Z,7.40
2023-02-17T06:38:48.669Z,7.30
2023-02-17T06:41:16.629Z,7.30
2023-02-17T06:43:43.377Z,7.30
2023-02-17T06:46:13.503Z,7.30
2023-02-17T06:48:40.350Z,7.30
2023-02-17T06:51:07.134Z,7.30
2023-02-17T06:53:33.957Z,7.40
2023-02-17T06:56:00.833Z,7.40
2023-02-17T07:02:42.374Z,7.40
2023-02-17T07:08:39.460Z,7.30
2023-02-17T07:11:10.772Z,7.30
2023-02-17T07:13:38.771Z,7.30
2023-02-17T07:16:06.220Z,7.30
2023-02-17T07:18:33.547Z,7.40
2023-02-17T07:21:00.596Z,7.40
2023-02-17T07:23:27.353Z,7.50
2023-02-17T07:25:54.211Z,7.50
2023-02-17T07:28:21.007Z,7.50
2023-02-17T07:30:47.807Z,7.50
2023-02-17T07:33:14.538Z,7.60
2023-02-17T07:35:43.960Z,7.60
2023-02-17T07:38:11.345Z,7.70
2023-02-17T07:40:38.551Z,7.70
2023-02-17T07:43:05.274Z,7.80
2023-02-17T07:45:32.015Z,7.80
2023-02-17T07:47:58.736Z,7.80
2023-02-17T07:50:25.515Z,7.90
2023-02-17T07:52:52.275Z,7.90
2023-02-17T07:55:19.017Z,7.90
2023-02-17T07:57:45.884Z,8.10
2023-02-17T08:00:13.241Z,8.10
2023-02-17T08:02:40.445Z,8.20
2023-02-17T08:05:07.286Z,8.10
2023-02-17T08:07:34.099Z,8.20
2023-02-17T08:10:19.665Z,8.20
2023-02-17T08:13:24.859Z,8.30
2023-02-17T08:15:51.560Z,8.30
2023-02-17T08:18:18.357Z,8.40
2023-02-17T08:20:45.276Z,8.30
2023-02-17T08:23:12.076Z,8.40
2023-02-17T08:25:39.061Z,8.50
2023-02-17T08:28:06.569Z,8.60
2023-02-17T08:30:36.179Z,8.70
2023-02-17T08:33:03.182Z,8.80
2023-02-17T08:35:30.084Z,8.90
2023-02-17T08:37:57.061Z,9.00
2023-02-17T08:40:24.189Z,9.10
2023-02-17T08:42:51.251Z,9.00
2023-02-17T08:45:18.510Z,9.10
2023-02-17T08:47:45.794Z,9.10
2023-02-17T08:50:16.098Z,9.10
2023-02-17T08:52:42.811Z,9.10
2023-02-17T08:55:09.586Z,9.20
2023-02-17T08:57:36.404Z,9.20
2023-02-17T09:00:07.784Z,9.30
2023-02-17T09:02:34.606Z,9.40
2023-02-17T09:05:01.393Z,9.40
2023-02-17T09:07:28.205Z,9.40
2023-02-17T09:09:55.008Z,9.40
2023-02-17T09:12:21.671Z,9.40
2023-02-17T09:14:48.454Z,9.40
2023-02-17T09:17:15.140Z,9.40
2023-02-17T09:19:41.883Z,9.40
2023-02-17T09:22:08.730Z,9.40
2023-02-17T09:24:38.764Z,9.40
2023-02-17T09:27:06.032Z,9.40
2023-02-17T09:29:32.855Z,9.40
2023-02-17T09:31:59.709Z,9.40
2023-02-17T09:34:26.569Z,9.30
2023-02-17T09:36:53.380Z,9.40
2023-02-17T09:39:20.284Z,9.40
2023-02-17T09:41:52.152Z,9.40
2023-02-17T09:44:25.816Z,9.40
2023-02-17T09:47:05.426Z,9.40
2023-02-17T09:49:40.126Z,9.50
2023-02-17T09:52:37.578Z,9.50
2023-02-17T09:55:09.503Z,9.50
2023-02-17T09:57:56.321Z,9.60
2023-02-17T10:00:34.864Z,9.60
2023-02-17T10:03:11.965Z,9.60
2023-02-17T10:05:46.745Z,9.70
2023-02-17T10:08:19.785Z,9.70
2023-02-17T10:11:04.530Z,9.70
2023-02-17T10:13:34.240Z,9.70
2023-02-17T10:16:07.035Z,9.90
2023-02-17T10:18:45.624Z,10.10
2023-02-17T10:21:27.933Z,10.20
2023-02-17T10:23:54.805Z,10.30
2023-02-17T10:26:28.228Z,10.30
2023-02-17T10:29:14.648Z,10.30
2023-02-17T10:31:49.097Z,10.30
2023-02-17T10:34:35.819Z,10.30
2023-02-17T10:37:24.028Z,10.30
2023-02-17T10:39:53.280Z,10.30
2023-02-17T10:42:32.455Z,10.30
2023-02-17T10:45:24.895Z,10.30
2023-02-17T10:47:59.182Z,10.30
2023-02-17T10:50:26.603Z,10.40
2023-02-17T10:52:56.290Z,10.50
2023-02-17T10:55:35.995Z,10.60
2023-02-17T10:58:14.042Z,10.90
2023-02-17T11:00:43.155Z,11.40
2023-02-17T11:03:28.836Z,11.60
2023-02-17T11:06:00.063Z,11.70
2023-02-17T11:08:59.418Z,11.90
2023-02-17T11:11:30.486Z,11.80
2023-02-17T11:14:01.277Z,11.70
2023-02-17T11:16:34.177Z,11.70
2023-02-17T11:19:01.907Z,11.70
2023-02-17T11:21:29.568Z,11.70
2023-02-17T11:24:03.336Z,11.80
2023-02-17T11:26:33.941Z,11.80
2023-02-17T11:29:17.993Z,11.90
2023-02-17T11:32:00.477Z,11.90
2023-02-17T11:34:30.433Z,11.90
2023-02-17T11:37:13.527Z,11.90
2023-02-17T11:39:46.175Z,11.80
2023-02-17T11:42:24.873Z,11.80
2023-02-17T11:44:53.754Z,11.80
2023-02-17T11:47:31.507Z,11.80
2023-02-17T11:49:58.273Z,11.80
2023-02-17T11:52:42.964Z,11.80
2023-02-17T11:55:33.610Z,11.70
2023-02-17T11:58:18.398Z,11.70
2023-02-17T12:00:51.908Z,11.70
2023-02-17T12:03:37.018Z,11.70
2023-02-17T12:06:25.225Z,11.60
2023-02-17T12:09:10.924Z,11.60
2023-02-17T12:12:04.733Z,11.50
2023-02-17T12:15:01.034Z,11.60
2023-02-17T12:17:41.310Z,11.60
2023-02-17T12:20:32.560Z,11.70
2023-02-17T12:23:08.007Z,11.70
2023-02-17T12:25:43.569Z,11.70
2023-02-17T12:28:36.893Z,11.70
2023-02-17T12:31:12.942Z,11.70
2023-02-17T12:33:42.713Z,11.70
2023-02-17T12:36:13.111Z,11.70
2023-02-17T12:38:53.356Z,11.70
2023-02-17T12:41:22.779Z,11.80
2023-02-17T12:44:01.054Z,11.70
2023-02-17T12:46:43.854Z,11.70
2023-02-17T12:49:22.044Z,11.60
2023-02-17T12:51:59.241Z,11.60
2023-02-17T12:54:36.598Z,11.60
2023-02-17T12:57:22.377Z,11.60
2023-02-17T12:59:52.008Z,11.70
2023-02-17T13:02:24.614Z,11.70
2023-02-17T13:05:00.192Z,11.70
2023-02-17T13:07:30.050Z,11.80
2023-02-17T13:09:57.644Z,11.80
2023-02-17T13:12:24.654Z,11.80
2023-02-17T13:14:57.231Z,11.80
2023-02-17T13:17:34.994Z,11.80
2023-02-17T13:20:10.529Z,11.90
2023-02-17T13:22:39.062Z,11.90
2023-02-17T13:25:06.815Z,11.90
2023-02-17T13:27:36.258Z,11.90
2023-02-17T13:30:17.534Z,12.00
2023-02-17T13:32:44.791Z,12.00
2023-02-17T13:35:14.516Z,12.00
2023-02-17T13:37:44.068Z,12.00
2023-02-17T13:40:17.758Z,12.00
2023-02-17T13:42:55.429Z,12.00
2023-02-17T13:45:38.833Z,12.10
2023-02-17T13:48:19.558Z,12.10
2023-02-17T13:50:48.672Z,12.10
2023-02-17T13:53:23.400Z,12.10
2023-02-17T13:55:50.252Z,12.00
2023-02-17T13:58:23.281Z,12.10
2023-02-17T14:00:50.665Z,12.10
2023-02-17T14:03:40.249Z,12.20
2023-02-17T14:06:11.906Z,12.20
2023-02-17T14:08:41.296Z,12.30
2023-02-17T14:11:13.909Z,12.20
2023-02-17T14:13:45.569Z,12.20
2023-02-17T14:16:38.167Z,12.30
2023-02-17T14:19:06.795Z,12.20
2023-02-17T14:21:34.898Z,12.20
2023-02-17T14:24:03.187Z,12.20
2023-02-17T14:26:42.259Z,12.20
2023-02-17T14:29:12.657Z,12.20
2023-02-17T14:31:41.438Z,12.10
2023-02-17T14:34:24.283Z,12.10
2023-02-17T14:36:51.481Z,12.10
2023-02-17T14:39:19.110Z,12.00
2023-02-17T14:41:45.992Z,12.10
2023-02-17T14:44:12.815Z,12.00
2023-02-17T14:46:39.963Z,12.00
2023-02-17T14:49:06.836Z,12.00
2023-02-17T14:51:36.384Z,11.90
2023-02-17T14:54:11.876Z,11.90
2023-02-17T14:56:43.566Z,11.80
2023-02-17T14:59:10.941Z,11.80
2023-02-17T15:01:37.872Z,11.80
2023-02-17T15:04:05.147Z,11.80
2023-02-17T15:06:51.783Z,11.80
2023-02-17T15:09:22.340Z,11.70
2023-02-17T15:11:49.538Z,11.80
2023-02-17T15:14:17.993Z,11.70
2023-02-17T15:16:45.250Z,11.70
2023-02-17T15:19:13.452Z,11.70
2023-02-17T15:21:47.258Z,11.70
2023-02-17T15:24:26.480Z,11.70
2023-02-17T15:26:55.865Z,11.70
2023-02-17T15:29:24.492Z,11.70
2023-02-17T15:31:53.450Z,11.80
2023-02-17T15:34:23.472Z,11.80
2023-02-17T15:36:50.150Z,11.90
2023-02-17T15:39:19.711Z,11.80
2023-02-17T15:41:48.479Z,11.80
2023-02-17T15:44:21.900Z,11.80
2023-02-17T15:46:51.427Z,11.80
2023-02-17T15:49:18.283Z,11.80
2023-02-17T15:51:45.087Z,11.70
2023-02-17T15:54:12.947Z,11.80
2023-02-17T15:56:46.835Z,11.70
2023-02-17T15:59:25.777Z,11.70
2023-02-17T16:01:56.085Z,11.70
2023-02-17T16:04:22.876Z,11.60
2023-02-17T16:06:49.550Z,11.70
2023-02-17T16:09:16.235Z,11.60
2023-02-17T16:11:53.164Z,11.60
2023-02-17T16:14:36.605Z,11.60
2023-02-17T16:17:10.991Z,11.60
2023-02-17T16:19:37.703Z,11.50
2023-02-17T16:22:04.416Z,11.50
2023-02-17T16:24:31.211Z,11.50
2023-02-17T16:26:58.057Z,11.50
2023-02-17T16:29:24.838Z,11.50
2023-02-17T16:31:52.450Z,11.50
2023-02-17T16:34:22.321Z,11.50
2023-02-17T16:36:51.105Z,11.50
2023-02-17T16:39:20.208Z,11.50
2023-02-17T16:41:48.378Z,11.50
2023-02-17T16:44:20.731Z,11.50
2023-02-17T16:46:54.950Z,11.50
2023-02-17T16:49:28.356Z,11.50
2023-02-17T16:51:55.064Z,11.50
2023-02-17T16:54:21.940Z,11.50
2023-02-17T16:56:51.685Z,11.50
2023-02-17T16:59:20.587Z,11.50
2023-02-17T17:01:47.845Z,11.50
2023-02-17T17:04:15.879Z,11.50
2023-02-17T17:06:45.620Z,11.50
2023-02-17T17:09:21.178Z,11.50
2023-02-17T17:11:48.023Z,11.60
2023-02-17T17:14:15.032Z,11.60
2023-02-17T17:16:45.438Z,11.50
2023-02-17T17:19:13.410Z,11.50
2023-02-17T17:21:40.503Z,11.50
2023-02-17T17:24:07.269Z,11.50
2023-02-17T17:26:43.921Z,11.50
2023-02-17T17:29:16.312Z,11.50
2023-02-17T17:31:43.345Z,11.40
2023-02-17T17:34:10.224Z,11.50
2023-02-17T17:36:40.552Z,11.50
2023-02-17T17:39:13.656Z,11.50
2023-02-17T17:41:40.442Z,11.50
2023-02-17T17:44:08.893Z,11.50
2023-02-17T17:46:38.107Z,11.40
2023-02-17T17:49:06.110Z,11.40
2023-02-17T17:51:33.922Z,11.40
2023-02-17T17:54:01.114Z,11.40
2023-02-17T17:56:30.415Z,11.40
2023-02-17T17:58:59.893Z,11.40
2023-02-17T18:01:26.962Z,11.40
2023-02-17T18:03:54.672Z,11.40
2023-02-17T18:06:26.864Z,11.40
2023-02-17T18:08:56.260Z,11.40
2023-02-17T18:11:24.831Z,11.40
2023-02-17T18:13:56.479Z,11.30
2023-02-17T18:16:26.431Z,11.30
2023-02-17T18:19:00.112Z,11.30
2023-02-17T18:21:28.922Z,11.30
2023-02-17T18:23:55.748Z,11.30
2023-02-17T18:26:22.633Z,11.30
2023-02-17T18:29:19.626Z,11.30
2023-02-17T18:31:47.058Z,11.30
2023-02-17T18:34:13.906Z,11.30
2023-02-17T18:36:40.760Z,11.30
2023-02-17T18:39:07.580Z,11.20
2023-02-17T18:41:34.808Z,11.30
2023-02-17T18:44:04.421Z,11.30
2023-02-17T18:46:33.195Z,11.20
2023-02-17T18:49:00.150Z,11.20
2023-02-17T18:51:27.656Z,11.20
2023-02-17T18:53:56.347Z,11.20
2023-02-17T18:56:26.494Z,11.20
2023-02-17T18:58:55.281Z,11.20
2023-02-17T19:01:23.412Z,11.20
2023-02-17T19:03:51.840Z,11.20
2023-02-17T19:06:22.719Z,11.10
2023-02-17T19:08:50.756Z,11.20
2023-02-17T19:11:19.433Z,11.10
2023-02-17T19:13:48.165Z,11.10
2023-02-17T19:16:20.916Z,11.10
2023-02-17T19:18:48.398Z,11.10
2023-02-17T19:21:15.547Z,11.00
2023-02-17T19:23:42.706Z,11.00
2023-02-17T19:26:11.701Z,11.00
2023-02-17T19:28:39.642Z,11.00
2023-02-17T19:31:12.909Z,10.90
2023-02-17T19:33:39.739Z,11.00
2023-02-17T19:36:11.875Z,10.90
2023-02-17T19:38:39.345Z,10.90
2023-02-17T19:41:09.505Z,10.90
2023-02-17T19:43:36.589Z,10.90
2023-02-17T19:46:04.269Z,10.90
2023-02-17T19:48:31.039Z,10.80
2023-02-17T19:51:03.661Z,10.80
2023-02-17T19:53:31.646Z,10.80
2023-02-17T19:56:13.321Z,10.80
2023-02-17T19:58:41.853Z,10.80
2023-02-17T20:01:14.042Z,10.80
2023-02-17T20:03:41.020Z,10.80
2023-02-17T20:06:16.615Z,10.80
2023-02-17T20:08:45.928Z,10.80
2023-02-17T20:11:13.528Z,10.80
2023-02-17T20:13:45.979Z,10.70
2023-02-17T20:16:15.779Z,10.80
2023-02-17T20:18:44.983Z,10.70
2023-02-17T20:21:14.804Z,10.70
2023-02-17T20:23:41.676Z,10.70
2023-02-17T20:26:11.905Z,10.70
2023-02-17T20:28:38.839Z,10.70
2023-02-17T20:31:06.437Z,10.70
2023-02-17T20:33:33.577Z,10.60
2023-02-17T20:36:00.682Z,10.60
2023-02-17T20:38:27.653Z,10.70
2023-02-17T20:40:54.400Z,10.70
2023-02-17T20:43:21.331Z,10.60
2023-02-17T20:45:49.458Z,10.60
2023-02-17T20:48:16.597Z,10.60
2023-02-17T20:50:45.022Z,10.60
2023-02-17T20:53:11.962Z,10.60
2023-02-17T20:55:39.141Z,10.60
2023-02-17T20:58:06.300Z,10.60
2023-02-17T21:00:34.023Z,10.60
2023-02-17T21:03:02.320Z,10.60
2023-02-17T21:05:29.816Z,10.60
2023-02-17T21:07:57.965Z,10.60
2023-02-17T21:10:28.536Z,10.60
2023-02-17T21:12:55.411Z,10.50
2023-02-17T21:15:22.273Z,10.50
2023-02-17T21:17:49.124Z,10.50
2023-02-17T21:20:19.834Z,10.50
2023-02-17T21:22:46.619Z,10.50
2023-02-17T21:25:15.636Z,10.40
2023-02-17T21:27:42.349Z,10.50
2023-02-17T21:30:10.238Z,10.40
2023-02-17T21:32:37.025Z,10.40
2023-02-17T21:35:03.972Z,10.40
2023-02-17T21:37:31.054Z,10.40
2023-02-17T21:39:57.798Z,10.40
2023-02-17T21:42:45.653Z,10.40
2023-02-17T21:45:12.567Z,10.40
2023-02-17T21:47:39.287Z,10.40
2023-02-17T21:50:06.945Z,10.40
2023-02-17T21:52:33.729Z,10.40
2023-02-17T21:55:01.031Z,10.40
2023-02-17T21:57:27.777Z,10.40
2023-02-17T21:59:54.484Z,10.40
2023-02-17T22:02:21.252Z,10.40
2023-02-17T22:04:48.232Z,10.40
2023-02-17T22:07:15.130Z,10.40
2023-02-17T22:09:41.902Z,10.40
2023-02-17T22:12:08.712Z,10.40
2023-02-17T22:14:35.673Z,10.50
2023-02-17T22:17:02.624Z,10.50
2023-02-17T22:19:31.484Z,10.40
2023-02-17T22:21:59.048Z,10.50
2023-02-17T22:24:28.839Z,10.50
2023-02-17T22:26:56.635Z,10.50
2023-02-17T22:29:23.524Z,10.50
2023-02-17T22:31:53.615Z,10.50
2023-02-17T22:34:20.526Z,10.50
2023-02-17T22:36:47.419Z,10.50
2023-02-17T22:39:14.458Z,10.50
2023-02-17T22:41:41.719Z,10.40
2023-02-17T22:44:08.631Z,10.40
2023-02-17T22:46:35.663Z,10.40
2023-02-17T22:49:02.817Z,10.40
2023-02-17T22:51:33.845Z,10.40
2023-02-17T22:54:01.696Z,10.40
2023-02-17T22:56:28.962Z,10.40
2023-02-17T22:58:58.068Z,10.40
2023-02-17T23:01:25.448Z,10.50
2023-02-17T23:03:54.575Z,10.40
2023-02-17T23:06:28.235Z,10.40
2023-02-17T23:08:55.428Z,10.40
2023-02-17T23:11:44.709Z,10.40
2023-02-17T23:14:13.114Z,10.40
2023-02-17T23:16:40.469Z,10.40
2023-02-17T23:19:13.839Z,10.40
2023-02-17T23:21:50.631Z,10.40
2023-02-17T23:24:22.309Z,10.40
2023-02-17T23:26:49.841Z,10.40
2023-02-17T23:29:16.882Z,10.40
2023-02-17T23:31:43.956Z,10.40
2023-02-17T23:34:18.036Z,10.40
2023-02-17T23:36:46.628Z,10.40
2023-02-17T23:39:15.533Z,10.30
2023-02-17T23:41:43.013Z,10.40
2023-02-17T23:44:11.678Z,10.40
2023-02-17T23:46:40.044Z,10.40
2023-02-17T23:49:06.935Z,10.30
2023-02-17T23:51:49.690Z,10.30
2023-02-17T23:54:16.736Z,10.40
2023-02-17T23:56:44.397Z,10.30
2023-02-17T23:59:11.745Z,10.30
